aviador You're here:

KBML Decoded Metar

BERLIN in NH, USA
Report Time2018-02-19 11:52:00
UTC Time2018-02-19 12:06:05
Flight Rules vfr VFR
WindCalm
Visibility9999 m
Phenomena:N/A
Clouds:N/A
Expected CloudBase > 1,200 ft AGL from Temp-Dew spread
CeilingNone
Temp-18°C (ISA -31)
Dew Point-21°C (78% RH)
AAT-21.6°C
QNH1030 hPa
Density Alt-3,340 ft
Elevation1,132 ft
Report Wrong Elevation
Raw Report
KBML 191152Z AUTO 00000KT 10SM CLR M18/M21 A3042 RMK AO2 SLP327
I6000 T11831211 11128 21183 51005=

Extra information for KBML:More info

Metar Taf Metar & Taf Last 4 Metars F.Rules Stats Wind Profile Meteogram Temp Stats Airport Information Weather charts Add Link Nearby VenuesMetar ALERT Operation Metar Decoded Social comments

AIRNAV info for KBML